Time;durP1;ratioP1;P1;durP2;ratioP2;P2;SDS_P1;SDS_P2;PMS_P1;PMS_P2;Temp;Humidity;BMP_temperature;BMP_pressure;BME280_temperature;BME280_humidity;BME280_pressure;Samples;Min_cycle;Max_cycle;Signal;HPM_P1;HPM_P2
2021/11/11 00:02:20;;;;;;;49.30;25.07;;;5.50;99.90;;;;;;5187334;28;20222;-66
2021/11/11 00:04:52;;;;;;;48.37;25.43;;;5.50;99.90;;;;;;5169738;28;20246;-69
2021/11/11 00:07:25;;;;;;;47.53;25.07;;;5.50;99.90;;;;;;5187580;28;20235;-66
2021/11/11 00:10:00;;;;;;;56.17;27.43;;;5.50;99.90;;;;;;5187495;28;20210;-67
2021/11/11 00:12:35;;;;;;;51.17;25.33;;;5.60;99.90;;;;;;5187474;28;20257;-65
2021/11/11 00:15:16;;;;;;;50.57;25.77;;;5.60;99.90;;;;;;5191720;28;20206;-64
2021/11/11 00:17:48;;;;;;;47.27;25.33;;;5.60;99.90;;;;;;5191328;28;20237;-69
2021/11/11 00:20:27;;;;;;;45.57;23.93;;;5.60;99.90;;;;;;5191806;28;20206;-72
2021/11/11 00:23:01;;;;;;;45.07;23.77;;;5.60;99.90;;;;;;5191222;28;20241;-66
2021/11/11 00:25:33;;;;;;;49.77;24.50;;;5.60;99.90;;;;;;5174442;28;20186;-67
2021/11/11 00:28:06;;;;;;;45.90;25.07;;;5.70;99.90;;;;;;5191694;28;20241;-65
2021/11/11 00:30:38;;;;;;;45.70;24.77;;;5.70;99.90;;;;;;5174948;28;20245;-66
2021/11/11 00:33:10;;;;;;;51.13;25.93;;;5.70;99.90;;;;;;5174053;28;20230;-66
2021/11/11 00:35:44;;;;;;;45.57;24.97;;;5.70;99.90;;;;;;5191830;28;20545;-65
2021/11/11 00:38:16;;;;;;;48.67;25.03;;;5.70;99.90;;;;;;5190957;28;20226;-65
2021/11/11 00:40:49;;;;;;;44.63;24.47;;;5.70;99.90;;;;;;5191107;28;20215;-66
2021/11/11 00:43:21;;;;;;;50.83;25.10;;;5.70;99.90;;;;;;5190163;28;20222;-66
2021/11/11 00:45:55;;;;;;;49.67;25.47;;;5.80;99.90;;;;;;5189825;28;20264;-66
2021/11/11 00:48:27;;;;;;;51.17;26.03;;;5.80;99.90;;;;;;5190881;28;20677;-67
2021/11/11 00:50:59;;;;;;;49.00;25.83;;;5.80;99.90;;;;;;5190671;28;20233;-63
2021/11/11 00:53:31;;;;;;;46.90;24.37;;;5.80;99.90;;;;;;5172341;28;20226;-69
2021/11/11 00:56:04;;;;;;;44.90;24.60;;;5.80;99.90;;;;;;5189536;28;20222;-64
2021/11/11 00:58:38;;;;;;;46.27;23.40;;;5.80;99.90;;;;;;5189577;28;20223;-65
2021/11/11 01:01:10;;;;;;;47.00;24.90;;;5.80;99.90;;;;;;5188400;28;20636;-64
2021/11/11 01:03:42;;;;;;;47.83;24.97;;;5.80;99.90;;;;;;5189306;28;20266;-64
2021/11/11 01:06:16;;;;;;;45.07;24.20;;;5.80;99.90;;;;;;5190509;28;20213;-65
2021/11/11 01:08:48;;;;;;;46.93;24.40;;;5.80;99.90;;;;;;5190609;28;20561;-63
2021/11/11 01:11:25;;;;;;;46.17;23.63;;;5.90;99.90;;;;;;5190221;28;20331;-65
2021/11/11 01:14:17;;;;;;;43.97;23.90;;;5.90;99.90;;;;;;5189896;28;20296;-68
2021/11/11 01:16:52;;;;;;;42.27;23.73;;;5.90;99.90;;;;;;5190264;28;20471;-64
2021/11/11 01:19:24;;;;;;;47.93;23.40;;;5.90;99.90;;;;;;5188969;28;20222;-65
2021/11/11 01:21:56;;;;;;;43.30;22.80;;;5.90;99.90;;;;;;5190180;28;20215;-66
2021/11/11 01:24:28;;;;;;;43.80;23.33;;;5.90;99.90;;;;;;5189468;28;20246;-68
2021/11/11 01:27:03;;;;;;;43.37;23.00;;;6.00;99.90;;;;;;5172937;28;20233;-65
2021/11/11 01:29:35;;;;;;;46.97;23.27;;;6.00;99.90;;;;;;5189329;28;20222;-67
2021/11/11 01:32:10;;;;;;;44.90;23.30;;;6.00;99.90;;;;;;5190050;28;20211;-65
2021/11/11 01:34:42;;;;;;;47.00;22.53;;;6.00;99.90;;;;;;5172723;28;20237;-66
2021/11/11 01:37:14;;;;;;;42.70;23.87;;;6.00;99.90;;;;;;5190798;28;20203;-66
2021/11/11 01:39:46;;;;;;;41.73;23.10;;;6.00;99.90;;;;;;5190361;28;20539;-66
2021/11/11 01:42:18;;;;;;;39.90;22.40;;;6.00;99.90;;;;;;5189753;28;20202;-67
2021/11/11 01:44:55;;;;;;;40.17;21.40;;;6.00;99.90;;;;;;5189643;28;20635;-64
2021/11/11 01:47:27;;;;;;;41.13;22.77;;;6.00;99.90;;;;;;5189586;28;20191;-66
2021/11/11 01:49:59;;;;;;;41.67;22.83;;;6.00;99.90;;;;;;5172362;28;20227;-65
2021/11/11 01:52:31;;;;;;;43.20;23.53;;;6.00;99.90;;;;;;5172555;28;20647;-66
2021/11/11 01:55:05;;;;;;;40.40;22.10;;;6.00;99.90;;;;;;5189125;28;20300;-67
2021/11/11 01:57:38;;;;;;;42.00;22.17;;;6.00;99.90;;;;;;5189791;28;20222;-64
2021/11/11 02:00:15;;;;;;;37.23;21.63;;;6.00;99.90;;;;;;5189609;28;20230;-69
2021/11/11 02:02:53;;;;;;;38.03;21.97;;;6.00;99.90;;;;;;5189597;28;20187;-63
2021/11/11 02:05:27;;;;;;;44.27;21.80;;;6.10;99.90;;;;;;5189072;28;20250;-64
2021/11/11 02:07:59;;;;;;;36.83;21.00;;;6.00;99.90;;;;;;5189378;28;20207;-65
2021/11/11 02:10:33;;;;;;;42.20;23.27;;;6.10;99.90;;;;;;5189538;28;20544;-68
2021/11/11 02:13:06;;;;;;;42.13;23.13;;;6.10;99.90;;;;;;5189522;28;20225;-67
2021/11/11 02:15:39;;;;;;;41.00;22.23;;;6.10;99.90;;;;;;5189379;28;20265;-66
2021/11/11 02:18:11;;;;;;;43.00;22.10;;;6.10;99.90;;;;;;5172058;28;20206;-67
2021/11/11 02:20:46;;;;;;;37.23;21.17;;;6.10;99.90;;;;;;5171780;28;20238;-64
2021/11/11 02:23:19;;;;;;;39.83;21.47;;;6.10;99.90;;;;;;5171697;28;20191;-67
2021/11/11 02:25:51;;;;;;;38.33;20.60;;;6.10;99.90;;;;;;5188880;28;20231;-66
2021/11/11 02:28:23;;;;;;;42.70;22.70;;;6.10;99.90;;;;;;5188897;28;20191;-65
2021/11/11 02:30:58;;;;;;;36.53;21.47;;;6.10;99.90;;;;;;5188802;28;20230;-64
2021/11/11 02:33:30;;;;;;;42.07;22.70;;;6.20;99.90;;;;;;5189176;28;20218;-66
2021/11/11 02:36:03;;;;;;;38.53;21.73;;;6.20;99.90;;;;;;5187857;28;20223;-64
2021/11/11 02:38:38;;;;;;;37.60;21.83;;;6.20;99.90;;;;;;5172297;28;20207;-65
2021/11/11 02:41:12;;;;;;;42.20;22.27;;;6.20;99.90;;;;;;5156334;28;20206;-66
2021/11/11 02:43:44;;;;;;;42.70;22.83;;;6.20;99.90;;;;;;5189748;28;20190;-67
2021/11/11 02:46:16;;;;;;;35.17;20.47;;;6.20;99.90;;;;;;5189089;28;20207;-65
2021/11/11 02:48:49;;;;;;;43.07;21.93;;;6.20;99.90;;;;;;5171602;28;20206;-64
2021/11/11 02:51:21;;;;;;;35.70;20.97;;;6.20;99.90;;;;;;5188584;28;20630;-64
2021/11/11 02:53:53;;;;;;;44.50;23.03;;;6.20;99.90;;;;;;5188146;28;20207;-65
2021/11/11 02:56:25;;;;;;;42.70;22.47;;;6.20;99.90;;;;;;5154881;28;20246;-63
2021/11/11 02:59:00;;;;;;;35.00;20.43;;;6.20;99.90;;;;;;5188388;28;20202;-68
2021/11/11 03:01:34;;;;;;;40.47;22.60;;;6.20;99.90;;;;;;5171542;28;20233;-67
2021/11/11 03:04:07;;;;;;;38.30;22.63;;;6.20;99.90;;;;;;5187945;28;20341;-66
2021/11/11 03:06:42;;;;;;;36.43;21.37;;;6.20;99.90;;;;;;5188350;28;20206;-65
2021/11/11 03:09:16;;;;;;;40.67;21.37;;;6.20;99.90;;;;;;5188424;28;20201;-64
2021/11/11 03:11:48;;;;;;;40.13;21.77;;;6.20;99.90;;;;;;5170664;28;20215;-65
2021/11/11 03:14:20;;;;;;;34.47;20.73;;;6.20;99.90;;;;;;5170924;28;20237;-66
2021/11/11 03:16:52;;;;;;;33.67;20.33;;;6.20;99.90;;;;;;5170501;28;20238;-62
2021/11/11 03:19:24;;;;;;;39.07;21.53;;;6.10;99.90;;;;;;5188063;28;20226;-66
2021/11/11 03:21:56;;;;;;;37.90;21.20;;;6.20;99.90;;;;;;5188049;28;20207;-66
2021/11/11 03:24:28;;;;;;;38.67;20.73;;;6.20;99.90;;;;;;5187872;28;20202;-66
2021/11/11 03:27:00;;;;;;;37.13;21.53;;;6.10;99.90;;;;;;5170605;28;20203;-66
2021/11/11 03:29:35;;;;;;;38.17;21.53;;;6.10;99.90;;;;;;5170934;28;20243;-64
2021/11/11 03:32:10;;;;;;;37.37;21.20;;;6.10;99.90;;;;;;5188054;28;20301;-68
2021/11/11 03:34:43;;;;;;;41.47;21.57;;;6.10;99.90;;;;;;5188194;28;20530;-67
2021/11/11 03:37:21;;;;;;;38.40;19.90;;;6.10;99.90;;;;;;5170627;28;20223;-67
2021/11/11 03:39:53;;;;;;;40.10;21.27;;;6.10;99.90;;;;;;5171058;28;20219;-68
2021/11/11 03:42:26;;;;;;;36.67;21.53;;;6.10;99.90;;;;;;5187907;28;20203;-65
2021/11/11 03:44:58;;;;;;;37.00;21.43;;;6.10;99.90;;;;;;5188439;28;20257;-63
2021/11/11 03:47:31;;;;;;;42.87;22.57;;;6.10;99.90;;;;;;5187690;28;20215;-64
2021/11/11 03:50:04;;;;;;;39.97;21.80;;;6.00;99.90;;;;;;5186598;28;20206;-65
2021/11/11 03:52:37;;;;;;;39.87;22.63;;;6.10;99.90;;;;;;5170185;28;20294;-67
2021/11/11 03:55:11;;;;;;;40.43;21.70;;;6.10;99.90;;;;;;5170173;28;20623;-64
2021/11/11 03:57:43;;;;;;;39.73;22.23;;;6.10;99.90;;;;;;5187597;28;20206;-65
2021/11/11 04:00:16;;;;;;;43.60;23.53;;;6.10;99.90;;;;;;5187697;28;20635;-67
2021/11/11 04:02:49;;;;;;;41.47;23.50;;;6.10;99.90;;;;;;5187659;28;20211;-67
2021/11/11 04:05:21;;;;;;;40.97;23.03;;;6.10;99.90;;;;;;5186890;28;20238;-65
2021/11/11 04:07:53;;;;;;;41.77;22.17;;;6.10;99.90;;;;;;5170152;28;20218;-65
2021/11/11 04:10:28;;;;;;;39.07;22.50;;;6.10;99.90;;;;;;5187849;28;20210;-63
2021/11/11 04:13:05;;;;;;;40.87;22.63;;;6.10;99.90;;;;;;5187848;28;20190;-66
2021/11/11 04:15:38;;;;;;;40.30;23.40;;;6.10;99.90;;;;;;5187413;28;20246;-64
2021/11/11 04:18:10;;;;;;;41.67;23.27;;;6.10;99.90;;;;;;5187510;28;20207;-65
2021/11/11 04:20:42;;;;;;;43.80;23.93;;;6.10;99.90;;;;;;5187018;28;20257;-68
2021/11/11 04:23:16;;;;;;;46.97;23.37;;;6.10;99.90;;;;;;5187151;28;20203;-64
2021/11/11 04:34:11;;;;;;;46.27;24.33;;;6.20;99.90;;;;;;5187231;28;20215;-68
2021/11/11 05:01:22;;;;;;;42.27;22.50;;;6.40;99.90;;;;;;5190919;28;20238;-68
2021/11/11 05:03:54;;;;;;;41.70;24.17;;;6.40;99.90;;;;;;5190386;28;20191;-65
2021/11/11 05:06:29;;;;;;;40.93;23.77;;;6.40;99.90;;;;;;5190741;28;20231;-69
2021/11/11 05:09:01;;;;;;;40.87;24.53;;;6.40;99.90;;;;;;5190758;28;20215;-65
2021/11/11 05:11:33;;;;;;;40.97;22.77;;;6.50;99.90;;;;;;5190283;28;20245;-68
2021/11/11 05:14:05;;;;;;;43.77;23.60;;;6.40;99.90;;;;;;5190078;28;20218;-66
2021/11/11 05:16:37;;;;;;;42.23;23.37;;;6.50;99.90;;;;;;5173815;28;20234;-68
2021/11/11 05:19:09;;;;;;;50.00;25.50;;;6.50;99.90;;;;;;5173475;28;20253;-68
2021/11/11 05:21:43;;;;;;;42.60;22.80;;;6.50;99.90;;;;;;5172772;28;20231;-67
2021/11/11 05:24:15;;;;;;;40.10;21.33;;;6.50;99.90;;;;;;5173208;28;20604;-68
2021/11/11 05:26:47;;;;;;;44.43;22.97;;;6.50;99.90;;;;;;5190027;28;20230;-69
2021/11/11 05:29:22;;;;;;;43.97;23.20;;;6.50;99.90;;;;;;5156774;28;20226;-65
2021/11/11 05:31:56;;;;;;;41.77;23.73;;;6.50;99.90;;;;;;5189911;28;20234;-67
2021/11/11 05:34:28;;;;;;;46.13;24.23;;;6.50;99.90;;;;;;5173029;28;20661;-65
2021/11/11 05:37:00;;;;;;;46.40;24.27;;;6.50;99.90;;;;;;5172758;28;20725;-67
2021/11/11 05:39:32;;;;;;;50.40;24.93;;;6.60;99.90;;;;;;5189507;28;20207;-72
2021/11/11 05:42:05;;;;;;;49.47;25.10;;;6.60;99.90;;;;;;5189947;28;20254;-69
2021/11/11 05:44:42;;;;;;;48.43;25.60;;;6.60;99.90;;;;;;5172898;28;20258;-64
2021/11/11 05:47:15;;;;;;;47.57;26.07;;;6.60;99.90;;;;;;5189678;28;20241;-64
2021/11/11 05:49:47;;;;;;;45.83;25.43;;;6.60;99.90;;;;;;5190112;28;20570;-65
2021/11/11 05:52:19;;;;;;;47.00;23.57;;;6.60;99.90;;;;;;5172404;28;20235;-69
2021/11/11 05:54:51;;;;;;;48.50;25.10;;;6.70;99.90;;;;;;5189554;28;20210;-66
2021/11/11 05:57:25;;;;;;;46.80;26.43;;;6.60;99.90;;;;;;5173642;28;20238;-70
2021/11/11 05:59:57;;;;;;;43.93;24.93;;;6.70;99.90;;;;;;5189907;28;20203;-69
2021/11/11 06:02:29;;;;;;;47.40;25.70;;;6.70;99.90;;;;;;5171718;28;20234;-66
2021/11/11 06:05:01;;;;;;;46.30;24.13;;;6.70;99.90;;;;;;5189281;28;20235;-71
2021/11/11 06:07:33;;;;;;;48.93;25.30;;;6.70;99.90;;;;;;5171734;28;20230;-70
2021/11/11 06:10:07;;;;;;;45.77;24.70;;;6.70;99.90;;;;;;5188849;28;20211;-66
2021/11/11 06:12:39;;;;;;;44.27;23.80;;;6.70;99.90;;;;;;5189390;28;20632;-66
2021/11/11 06:15:11;;;;;;;46.53;23.33;;;6.80;99.90;;;;;;5156917;28;20520;-66
2021/11/11 06:17:44;;;;;;;44.80;22.77;;;6.70;99.90;;;;;;5189063;28;20235;-64
2021/11/11 06:20:20;;;;;;;40.97;22.90;;;6.70;99.90;;;;;;5188916;28;20203;-67
2021/11/11 06:22:52;;;;;;;46.97;24.63;;;6.80;99.90;;;;;;5172309;28;20222;-65
2021/11/11 06:25:24;;;;;;;47.13;23.80;;;6.80;99.90;;;;;;5171807;28;20276;-64
2021/11/11 06:27:57;;;;;;;45.23;24.20;;;6.80;99.90;;;;;;5188744;28;20241;-67
2021/11/11 06:30:29;;;;;;;46.50;24.27;;;6.80;99.90;;;;;;5189272;28;20191;-65
2021/11/11 06:33:04;;;;;;;42.27;23.97;;;6.90;99.90;;;;;;5189225;28;20241;-65
2021/11/11 06:35:36;;;;;;;47.37;24.67;;;6.90;99.90;;;;;;5172413;28;20657;-67
2021/11/11 06:38:11;;;;;;;42.43;24.03;;;6.90;99.90;;;;;;5189100;28;20626;-72
2021/11/11 06:40:43;;;;;;;46.33;24.87;;;6.90;99.90;;;;;;5171928;28;20290;-68
2021/11/11 06:43:15;;;;;;;47.40;24.57;;;6.90;99.90;;;;;;5188380;28;20207;-67
2021/11/11 06:45:50;;;;;;;43.40;23.63;;;7.00;99.90;;;;;;5188849;28;20187;-67
2021/11/11 06:48:22;;;;;;;44.83;23.83;;;7.00;99.90;;;;;;5188627;28;20206;-70
2021/11/11 06:50:59;;;;;;;46.57;24.40;;;7.00;99.90;;;;;;5188955;28;20191;-66
2021/11/11 06:53:31;;;;;;;46.20;24.50;;;7.10;99.90;;;;;;5188779;28;20206;-65
2021/11/11 06:56:03;;;;;;;47.13;22.50;;;7.00;99.90;;;;;;5171230;28;20234;-65
2021/11/11 06:58:38;;;;;;;44.27;23.60;;;7.00;99.90;;;;;;5187121;28;20234;-63
2021/11/11 07:01:10;;;;;;;47.67;24.00;;;7.10;99.90;;;;;;5188519;28;20190;-65
2021/11/11 07:03:42;;;;;;;48.00;25.20;;;7.10;99.90;;;;;;5171245;28;20627;-66
2021/11/11 07:06:15;;;;;;;50.20;26.27;;;7.10;99.90;;;;;;5187506;28;20302;-69
2021/11/11 07:08:49;;;;;;;48.07;25.30;;;7.10;99.90;;;;;;5171892;28;20207;-63
2021/11/11 07:11:24;;;;;;;48.70;25.83;;;7.10;99.90;;;;;;5188098;28;20634;-64
2021/11/11 07:13:56;;;;;;;50.00;26.23;;;7.00;99.90;;;;;;5187860;28;20216;-62
2021/11/11 07:16:28;;;;;;;48.00;25.53;;;7.00;99.90;;;;;;5187718;28;20242;-70
2021/11/11 07:19:00;;;;;;;49.43;25.43;;;7.00;99.90;;;;;;5187422;28;20294;-67
2021/11/11 07:21:35;;;;;;;48.70;26.43;;;7.00;99.90;;;;;;5186540;28;20234;-68
2021/11/11 07:24:08;;;;;;;43.00;23.77;;;7.00;99.90;;;;;;5171257;28;20206;-67
2021/11/11 07:26:42;;;;;;;50.43;25.87;;;7.00;99.90;;;;;;5171109;28;20578;-69
2021/11/11 07:29:14;;;;;;;50.40;25.47;;;7.00;99.90;;;;;;5186800;28;20210;-65
2021/11/11 07:31:51;;;;;;;49.40;27.47;;;7.10;99.90;;;;;;5188296;28;20207;-64
2021/11/11 07:34:24;;;;;;;48.87;25.77;;;7.10;99.90;;;;;;5187988;28;20201;-66
2021/11/11 07:36:58;;;;;;;45.57;25.00;;;7.20;99.90;;;;;;5187444;28;20558;-68
2021/11/11 07:39:33;;;;;;;45.50;25.00;;;7.30;99.90;;;;;;5171232;28;20217;-72
2021/11/11 07:42:05;;;;;;;53.30;25.47;;;7.40;99.90;;;;;;5172609;28;20552;-69
2021/11/11 07:44:37;;;;;;;53.13;26.57;;;7.40;99.90;;;;;;5187139;28;20214;-68
2021/11/11 07:47:10;;;;;;;53.20;26.23;;;7.60;99.90;;;;;;5170699;28;20391;-66
2021/11/11 07:49:42;;;;;;;56.10;27.00;;;7.70;99.90;;;;;;5170815;28;20627;-71
2021/11/11 07:52:14;;;;;;;59.67;28.50;;;7.90;99.90;;;;;;5170863;28;20206;-67
2021/11/11 07:54:49;;;;;;;51.13;26.97;;;8.00;99.90;;;;;;5187871;28;20558;-65
2021/11/11 07:57:23;;;;;;;49.00;26.97;;;8.20;99.90;;;;;;5169962;28;20226;-66
2021/11/11 07:59:56;;;;;;;43.00;25.30;;;8.30;99.90;;;;;;5187436;28;20202;-67
2021/11/11 08:02:28;;;;;;;52.30;25.33;;;8.30;99.90;;;;;;5187295;28;20205;-67
2021/11/11 08:05:00;;;;;;;50.20;24.27;;;8.30;99.90;;;;;;5187507;28;20245;-68
2021/11/11 08:07:34;;;;;;;50.63;26.67;;;8.30;99.90;;;;;;5187371;28;20666;-69
2021/11/11 08:10:06;;;;;;;43.80;23.93;;;8.30;99.90;;;;;;5187482;28;20213;-65
2021/11/11 08:12:39;;;;;;;43.07;25.80;;;8.20;99.90;;;;;;5187204;28;20202;-64
2021/11/11 08:15:11;;;;;;;47.67;23.77;;;8.10;99.90;;;;;;5186594;28;20217;-65
2021/11/11 08:17:44;;;;;;;44.03;23.73;;;8.10;99.90;;;;;;5187817;28;20238;-70
2021/11/11 08:20:19;;;;;;;44.13;23.47;;;8.10;99.90;;;;;;5187663;28;20217;-67
2021/11/11 08:22:51;;;;;;;42.90;21.70;;;8.00;99.90;;;;;;5187779;28;20202;-66
2021/11/11 08:25:24;;;;;;;45.70;21.93;;;8.00;99.90;;;;;;5170057;28;20202;-65
2021/11/11 08:27:56;;;;;;;38.90;21.13;;;8.00;99.90;;;;;;5187389;28;20663;-65
2021/11/11 08:30:29;;;;;;;38.40;19.97;;;8.10;99.90;;;;;;5187452;28;20214;-68
2021/11/11 08:33:03;;;;;;;33.67;19.83;;;8.10;99.90;;;;;;5169958;28;20230;-66
2021/11/11 08:35:35;;;;;;;36.53;19.30;;;8.20;99.90;;;;;;5190613;28;20210;-63
2021/11/11 08:38:10;;;;;;;34.63;19.57;;;8.30;99.90;;;;;;5173742;28;20234;-66
2021/11/11 08:40:45;;;;;;;32.13;18.07;;;8.30;99.90;;;;;;5174376;28;20642;-64
2021/11/11 08:43:20;;;;;;;42.03;19.10;;;8.40;99.90;;;;;;5174288;28;20202;-66
2021/11/11 08:45:52;;;;;;;37.77;18.73;;;8.40;99.90;;;;;;5191536;28;20203;-68
2021/11/11 08:48:27;;;;;;;34.17;18.53;;;8.50;99.90;;;;;;5191113;28;20238;-67
2021/11/11 08:50:59;;;;;;;34.13;18.03;;;8.50;99.90;;;;;;5173871;28;20211;-64
2021/11/11 08:53:32;;;;;;;35.13;18.83;;;8.70;99.90;;;;;;5191577;28;20237;-68
2021/11/11 08:56:04;;;;;;;34.27;18.17;;;8.70;99.90;;;;;;5191184;28;20207;-65
2021/11/11 08:58:38;;;;;;;28.97;16.93;;;8.70;99.90;;;;;;5189724;28;20233;-65
2021/11/11 09:01:10;;;;;;;31.27;17.80;;;8.70;99.90;;;;;;5173831;28;20210;-63
2021/11/11 09:03:43;;;;;;;28.53;16.10;;;8.70;99.90;;;;;;5173244;28;20226;-64
2021/11/11 09:06:15;;;;;;;31.00;17.07;;;8.70;99.90;;;;;;5173463;28;20207;-65
2021/11/11 09:08:47;;;;;;;28.77;14.63;;;8.80;99.90;;;;;;5190406;28;20241;-66
2021/11/11 09:11:20;;;;;;;30.47;15.47;;;8.80;99.90;;;;;;5173354;28;20306;-66
2021/11/11 09:13:56;;;;;;;28.10;15.47;;;8.90;99.90;;;;;;5190274;28;20310;-67
2021/11/11 09:16:28;;;;;;;27.70;15.73;;;9.00;99.90;;;;;;5172843;28;20202;-67
2021/11/11 09:19:02;;;;;;;27.27;13.53;;;9.00;99.90;;;;;;5190428;28;20231;-69
2021/11/11 09:21:36;;;;;;;24.13;14.13;;;9.10;99.90;;;;;;5189907;28;20213;-65
2021/11/11 09:24:10;;;;;;;27.57;14.10;;;9.10;99.90;;;;;;5190259;28;20325;-65
2021/11/11 09:26:44;;;;;;;22.30;12.87;;;9.20;99.90;;;;;;5172880;28;20215;-68
2021/11/11 09:29:18;;;;;;;28.27;14.33;;;9.20;99.90;;;;;;5172739;28;20384;-65
2021/11/11 09:31:53;;;;;;;27.00;14.63;;;9.20;99.90;;;;;;5189564;28;20210;-65
2021/11/11 09:34:25;;;;;;;25.23;15.50;;;9.20;99.90;;;;;;5189802;28;20234;-64
2021/11/11 09:36:57;;;;;;;28.73;14.90;;;9.20;99.90;;;;;;5190252;28;20223;-65
2021/11/11 09:39:30;;;;;;;29.17;16.23;;;9.10;99.90;;;;;;5173803;28;20223;-66
2021/11/11 09:42:05;;;;;;;26.63;15.47;;;9.10;99.90;;;;;;5172606;28;20207;-68
2021/11/11 09:44:40;;;;;;;27.00;15.43;;;9.10;99.90;;;;;;5189344;28;20573;-68
2021/11/11 09:47:15;;;;;;;29.00;16.23;;;9.10;99.90;;;;;;5189476;28;20257;-64
2021/11/11 09:49:47;;;;;;;30.07;16.80;;;9.20;99.90;;;;;;5189511;28;20253;-63
2021/11/11 09:52:20;;;;;;;24.70;14.47;;;9.20;99.90;;;;;;5174195;28;20487;-63
2021/11/11 10:00:36;;;;;;;23.03;13.50;;;9.40;99.90;;;;;;5185463;28;20231;-67
2021/11/11 10:03:08;;;;;;;26.83;14.13;;;9.50;99.90;;;;;;5189510;28;20657;-63
2021/11/11 10:05:40;;;;;;;28.90;14.17;;;9.50;99.90;;;;;;5188562;28;20741;-66
2021/11/11 10:08:32;;;;;;;23.43;13.33;;;9.60;99.90;;;;;;5189332;28;20689;-67
2021/11/11 10:11:13;;;;;;;22.97;14.03;;;9.50;99.90;;;;;;5171745;28;20238;-68
2021/11/11 10:13:57;;;;;;;21.53;13.50;;;9.60;99.90;;;;;;5189439;28;20195;-64
2021/11/11 10:16:33;;;;;;;24.23;13.63;;;9.60;99.90;;;;;;5189686;28;20230;-68
2021/11/11 10:19:15;;;;;;;24.83;14.13;;;9.60;99.90;;;;;;5190215;28;20310;-68
2021/11/11 10:21:58;;;;;;;21.00;12.73;;;9.60;99.90;;;;;;5189016;28;20285;-65
2021/11/11 10:24:32;;;;;;;21.57;12.60;;;9.60;99.90;;;;;;5188625;28;20665;-71
2021/11/11 10:27:31;;;;;;;23.30;12.67;;;9.60;99.90;;;;;;5188141;28;20199;-66
2021/11/11 10:30:14;;;;;;;19.93;11.93;;;9.60;99.90;;;;;;5188159;28;20203;-67
2021/11/11 10:32:58;;;;;;;23.47;13.27;;;9.60;99.90;;;;;;5189291;28;20211;-65
2021/11/11 10:35:35;;;;;;;21.57;12.03;;;9.60;99.90;;;;;;5189177;28;20519;-66
2021/11/11 10:38:13;;;;;;;20.93;12.20;;;9.60;99.90;;;;;;5188939;28;20231;-64
2021/11/11 10:40:52;;;;;;;20.27;12.47;;;9.60;99.90;;;;;;5189254;28;20206;-63
2021/11/11 10:43:28;;;;;;;22.97;13.33;;;9.60;99.90;;;;;;5188903;28;20543;-66
2021/11/11 10:46:00;;;;;;;20.00;12.47;;;9.60;99.90;;;;;;5171605;28;20237;-66
2021/11/11 10:48:34;;;;;;;23.07;13.83;;;9.60;99.90;;;;;;5188906;28;20206;-67
2021/11/11 10:51:07;;;;;;;20.87;12.87;;;9.60;99.90;;;;;;5188815;28;20207;-66
2021/11/11 10:53:39;;;;;;;22.63;12.93;;;9.60;99.90;;;;;;5175866;28;20207;-66
2021/11/11 10:56:11;;;;;;;22.80;12.73;;;9.70;99.90;;;;;;5179564;28;20210;-67
2021/11/11 10:58:45;;;;;;;26.20;14.43;;;9.70;99.90;;;;;;5187515;28;20234;-66
2021/11/11 11:01:19;;;;;;;26.30;13.87;;;9.60;99.90;;;;;;5171361;28;20207;-69
2021/11/11 11:03:57;;;;;;;27.73;14.67;;;9.60;99.90;;;;;;5188304;28;20201;-71
2021/11/11 11:06:29;;;;;;;26.20;14.27;;;9.60;99.90;;;;;;5187204;28;20230;-67
2021/11/11 11:09:02;;;;;;;24.37;13.60;;;9.60;99.90;;;;;;5165014;28;20294;-68
2021/11/11 11:11:38;;;;;;;25.73;14.17;;;9.50;99.90;;;;;;5171314;28;20207;-68
2021/11/11 11:14:19;;;;;;;26.70;14.53;;;9.50;99.90;;;;;;5187772;28;20195;-67
2021/11/11 11:16:53;;;;;;;23.70;13.53;;;9.50;99.90;;;;;;5188607;28;20523;-66
2021/11/11 11:19:27;;;;;;;24.43;13.77;;;9.60;99.90;;;;;;5154396;28;20233;-67
2021/11/11 11:21:59;;;;;;;25.27;13.87;;;9.60;99.90;;;;;;5187990;28;20213;-65
2021/11/11 11:24:32;;;;;;;23.57;13.27;;;9.60;99.90;;;;;;5188635;28;20219;-65
2021/11/11 11:27:06;;;;;;;27.80;16.27;;;9.60;99.90;;;;;;5185316;28;20345;-66
2021/11/11 11:29:58;;;;;;;31.33;15.87;;;9.60;99.90;;;;;;5187231;28;20226;-65
2021/11/11 11:32:32;;;;;;;29.57;16.07;;;9.60;99.90;;;;;;5187439;28;20256;-66
2021/11/11 11:35:05;;;;;;;28.20;16.70;;;9.70;99.90;;;;;;5187263;28;20305;-64
2021/11/11 11:37:40;;;;;;;27.13;16.40;;;9.60;99.90;;;;;;5173721;28;20234;-63
2021/11/11 11:40:16;;;;;;;32.77;17.33;;;9.70;99.90;;;;;;5173345;28;20227;-66
2021/11/11 11:42:51;;;;;;;28.57;16.57;;;9.70;99.90;;;;;;5184846;28;20599;-65
2021/11/11 11:45:23;;;;;;;36.17;18.10;;;9.80;99.90;;;;;;5170271;28;20237;-67
2021/11/11 11:48:06;;;;;;;31.23;17.33;;;9.80;99.90;;;;;;5178385;28;20579;-67
2021/11/11 11:50:49;;;;;;;33.30;16.90;;;9.80;99.90;;;;;;5168953;28;20223;-67
2021/11/11 11:53:26;;;;;;;30.10;16.50;;;9.80;99.90;;;;;;5175586;28;20203;-67
2021/11/11 11:56:07;;;;;;;31.40;16.73;;;9.90;99.90;;;;;;5179378;28;20195;-68
2021/11/11 11:58:46;;;;;;;30.33;16.70;;;9.90;99.90;;;;;;5164165;28;20618;-68
2021/11/11 12:01:53;;;;;;;30.90;17.30;;;10.00;99.90;;;;;;5177281;28;20210;-65
2021/11/11 12:04:55;;;;;;;29.63;16.93;;;9.90;99.90;;;;;;5183450;28;20241;-70
2021/11/11 12:11:17;;;;;;;31.37;17.17;;;9.80;99.90;;;;;;5141840;28;20512;-63
2021/11/11 12:14:04;;;;;;;31.87;16.67;;;9.70;99.90;;;;;;5190123;28;20203;-68
2021/11/11 12:40:03;;;;;;;33.63;18.03;;;9.60;99.90;;;;;;5193265;28;20214;-66
2021/11/11 12:42:43;;;;;;;36.30;18.07;;;9.60;99.90;;;;;;5192764;28;20584;-66
2021/11/11 12:45:30;;;;;;;31.37;17.77;;;9.60;99.90;;;;;;5190153;28;20287;-64
2021/11/11 12:48:05;;;;;;;32.33;17.17;;;9.60;99.90;;;;;;5189008;28;20219;-63
2021/11/11 12:50:50;;;;;;;29.27;17.33;;;9.70;99.90;;;;;;5191669;28;20198;-67
2021/11/11 12:53:29;;;;;;;29.93;17.17;;;9.70;99.90;;;;;;5190425;28;20231;-68
2021/11/11 12:56:01;;;;;;;34.30;18.33;;;9.70;99.90;;;;;;5194089;28;20290;-66
2021/11/11 12:58:59;;;;;;;31.60;17.50;;;9.70;99.90;;;;;;5192716;28;20234;-67
2021/11/11 13:01:48;;;;;;;31.10;18.43;;;9.70;99.90;;;;;;5199496;28;20207;-64
2021/11/11 13:04:22;;;;;;;32.83;17.77;;;9.70;99.90;;;;;;5190097;28;20231;-65
2021/11/11 13:06:58;;;;;;;29.67;17.30;;;9.70;99.90;;;;;;5197199;28;20206;-64
2021/11/11 13:09:36;;;;;;;31.87;16.37;;;9.70;99.90;;;;;;5177561;28;20222;-65
2021/11/11 13:12:26;;;;;;;34.37;17.43;;;9.70;99.90;;;;;;5191153;28;20531;-67
2021/11/11 13:15:04;;;;;;;31.37;16.70;;;9.70;99.90;;;;;;5190752;28;20229;-67
2021/11/11 13:17:41;;;;;;;28.67;15.53;;;9.80;99.90;;;;;;5191097;28;20230;-70
2021/11/11 13:20:19;;;;;;;24.67;16.13;;;9.80;99.90;;;;;;5190899;28;20215;-61
2021/11/11 13:25:47;;;;;;;28.43;15.23;;;9.80;99.90;;;;;;5198365;28;20673;-63
2021/11/11 14:00:25;;;;;;;25.00;14.27;;;9.70;99.90;;;;;;5192321;28;20531;-66
2021/11/11 15:14:20;;;;;;;23.40;12.77;;;9.20;99.90;;;;;;5181567;28;20226;-63
2021/11/11 16:24:47;;;;;;;28.80;15.93;;;8.80;99.90;;;;;;5145417;28;20518;-67
2021/11/11 16:27:19;;;;;;;32.63;17.37;;;8.90;99.90;;;;;;5181381;28;20199;-69
2021/11/11 16:30:04;;;;;;;35.00;17.33;;;8.80;99.90;;;;;;5187487;28;20529;-66
2021/11/11 16:32:37;;;;;;;32.20;16.93;;;8.80;99.90;;;;;;5194051;28;20523;-68
2021/11/11 16:35:14;;;;;;;36.50;18.07;;;8.80;99.90;;;;;;5189347;28;20207;-68
2021/11/11 16:37:46;;;;;;;37.70;17.43;;;8.80;99.90;;;;;;5194175;28;20489;-68
2021/11/11 16:40:22;;;;;;;35.33;16.40;;;8.70;99.90;;;;;;5185791;28;20236;-71
2021/11/11 16:42:54;;;;;;;38.17;19.37;;;8.70;99.90;;;;;;5191692;28;20199;-68
2021/11/11 16:45:27;;;;;;;35.67;18.83;;;8.70;99.90;;;;;;5185899;28;20199;-67
2021/11/11 16:47:59;;;;;;;42.87;21.43;;;8.70;99.90;;;;;;5186099;28;20215;-73
2021/11/11 16:50:32;;;;;;;36.60;20.10;;;8.60;99.90;;;;;;5180389;28;20245;-69
2021/11/11 16:53:04;;;;;;;38.83;20.57;;;8.70;99.90;;;;;;5163504;28;20223;-69
2021/11/11 16:55:39;;;;;;;42.63;21.37;;;8.60;99.90;;;;;;5194277;28;20245;-69
2021/11/11 16:58:14;;;;;;;42.53;21.60;;;8.60;99.90;;;;;;5194763;28;20202;-72
2021/11/11 17:00:46;;;;;;;44.10;22.13;;;8.50;99.90;;;;;;5199081;28;20230;-67
2021/11/11 17:03:20;;;;;;;46.70;23.37;;;8.50;99.90;;;;;;5200687;28;20206;-68
2021/11/11 17:05:55;;;;;;;43.63;22.20;;;8.50;99.90;;;;;;5197686;28;20230;-69
2021/11/11 17:08:31;;;;;;;43.40;22.93;;;8.50;99.90;;;;;;5202516;28;20522;-70
2021/11/11 17:11:03;;;;;;;43.67;22.67;;;8.50;99.90;;;;;;5194872;28;20257;-64
2021/11/11 17:13:37;;;;;;;42.03;23.23;;;8.50;99.90;;;;;;5173621;28;20221;-67